IGO5329 VABB-VECC
Flight info
| Callsign | IGO5329 |
|---|---|
| Flight time | N/A |
| Altitude | 39000 |
| Route | ANOL2AXNONEN/27 NONEN Q19 KAMLO W108 NNP G450 JJS JJS2G |
| Aircraft | A20N/M-SDE2E3FGHIRWXY/LB1 |
Departure
| Time | 2026-05-06 08:23 |
|---|---|
| Airport | Chhatrapati Shivaji Maharaj International Airport (VABB) |
Arrival
| Time | N/A |
|---|---|
| Airport | Netaji Subhash Chandra Bose International Airport (VECC) |
| Time | Latitude | Longitude | Altitude | Speed | Heading |
|---|---|---|---|---|---|
| 2026-05-06 08:12 | 19.09157 | 72.85366 | 49 ft | 0 kts | 0° |
| 2026-05-06 08:14 | 19.09141 | 72.85366 | 44 ft | 2 kts | 2° |
| 2026-05-06 08:14 | 19.09125 | 72.85365 | 46 ft | 2 kts | 5° |
| 2026-05-06 08:15 | 19.09108 | 72.85362 | 47 ft | 2 kts | 16° |
| 2026-05-06 08:15 | 19.09094 | 72.85354 | 49 ft | 2 kts | 62° |
| 2026-05-06 08:15 | 19.09090 | 72.85341 | 43 ft | 1 kts | 89° |
| 2026-05-06 08:15 | 19.09090 | 72.85340 | 43 ft | 0 kts | 88° |
| 2026-05-06 08:16 | 19.09090 | 72.85341 | 43 ft | 1 kts | 88° |
| 2026-05-06 08:16 | 19.09091 | 72.85367 | 45 ft | 5 kts | 89° |
| 2026-05-06 08:16 | 19.09067 | 72.85398 | 49 ft | 7 kts | 161° |
| 2026-05-06 08:17 | 19.09025 | 72.85424 | 49 ft | 8 kts | 105° |
| 2026-05-06 08:17 | 19.09025 | 72.85493 | 49 ft | 11 kts | 90° |
| 2026-05-06 08:17 | 19.09026 | 72.85590 | 49 ft | 15 kts | 89° |
| 2026-05-06 08:17 | 19.09027 | 72.85666 | 49 ft | 10 kts | 89° |
| 2026-05-06 08:18 | 19.09029 | 72.85754 | 48 ft | 14 kts | 89° |
| 2026-05-06 08:18 | 19.09031 | 72.85869 | 48 ft | 17 kts | 89° |
| 2026-05-06 08:18 | 19.09033 | 72.86009 | 48 ft | 21 kts | 89° |
| 2026-05-06 08:18 | 19.09035 | 72.86170 | 48 ft | 23 kts | 90° |
| 2026-05-06 08:19 | 19.09037 | 72.86350 | 48 ft | 24 kts | 89° |
| 2026-05-06 08:19 | 19.09038 | 72.86479 | 48 ft | 14 kts | 89° |
| 2026-05-06 08:19 | 19.09040 | 72.86591 | 49 ft | 17 kts | 88° |
| 2026-05-06 08:19 | 19.09042 | 72.86723 | 50 ft | 19 kts | 89° |
| 2026-05-06 08:20 | 19.09043 | 72.86877 | 50 ft | 22 kts | 89° |
| 2026-05-06 08:20 | 19.09047 | 72.87044 | 50 ft | 24 kts | 89° |
| 2026-05-06 08:20 | 19.09050 | 72.87221 | 49 ft | 23 kts | 89° |
| 2026-05-06 08:20 | 19.09051 | 72.87397 | 49 ft | 25 kts | 89° |
| 2026-05-06 08:21 | 19.09054 | 72.87566 | 49 ft | 18 kts | 89° |
| 2026-05-06 08:21 | 19.09056 | 72.87698 | 47 ft | 14 kts | 89° |
| 2026-05-06 08:21 | 19.09042 | 72.87794 | 48 ft | 13 kts | 134° |
| 2026-05-06 08:21 | 19.08977 | 72.87807 | 46 ft | 9 kts | 178° |
| 2026-05-06 08:22 | 19.08927 | 72.87808 | 48 ft | 12 kts | 178° |
| 2026-05-06 08:22 | 19.08887 | 72.87780 | 48 ft | 0 kts | 265° |
| 2026-05-06 08:22 | 19.08882 | 72.87613 | 47 ft | 58 kts | 268° |
| 2026-05-06 08:22 | 19.08874 | 72.86952 | 51 ft | 119 kts | 269° |
| 2026-05-06 08:23 | 19.08866 | 72.85905 | 109 ft | 160 kts | 270° |
| 2026-05-06 08:23 | 19.08840 | 72.84716 | 606 ft | 165 kts | 269° |
| 2026-05-06 08:23 | 19.08815 | 72.83469 | 1113 ft | 173 kts | 270° |
| 2026-05-06 08:23 | 19.08806 | 72.82162 | 1766 ft | 182 kts | 272° |
| 2026-05-06 08:24 | 19.08803 | 72.80779 | 2330 ft | 199 kts | 272° |
| 2026-05-06 08:24 | 19.08793 | 72.79753 | 2609 ft | 214 kts | 271° |
| 2026-05-06 08:24 | 19.08758 | 72.77482 | 3073 ft | 251 kts | 271° |
| 2026-05-06 08:24 | 19.08744 | 72.76201 | 3352 ft | 267 kts | 275° |
| 2026-05-06 08:25 | 19.09241 | 72.74294 | 3985 ft | 274 kts | 303° |
| 2026-05-06 08:25 | 19.10522 | 72.72833 | 4791 ft | 272 kts | 330° |
| 2026-05-06 08:25 | 19.12286 | 72.72157 | 5629 ft | 271 kts | 356° |
| 2026-05-06 08:25 | 19.14142 | 72.72409 | 6446 ft | 273 kts | 21° |
| 2026-05-06 08:26 | 19.15820 | 72.73339 | 7225 ft | 278 kts | 33° |
| 2026-05-06 08:26 | 19.17476 | 72.74458 | 7948 ft | 287 kts | 33° |
| 2026-05-06 08:26 | 19.19241 | 72.75569 | 8698 ft | 296 kts | 30° |
| 2026-05-06 08:26 | 19.21061 | 72.76591 | 9443 ft | 304 kts | 27° |
| 2026-05-06 08:27 | 19.22976 | 72.77581 | 10177 ft | 311 kts | 26° |
| 2026-05-06 08:27 | 19.25006 | 72.78589 | 10527 ft | 334 kts | 25° |
| 2026-05-06 08:27 | 19.27207 | 72.79663 | 10874 ft | 353 kts | 25° |
| 2026-05-06 08:27 | 19.29421 | 72.80741 | 11654 ft | 355 kts | 24° |
| 2026-05-06 08:28 | 19.31656 | 72.81832 | 12576 ft | 354 kts | 24° |
| 2026-05-06 08:28 | 19.33872 | 72.82917 | 13417 ft | 355 kts | 24° |
| 2026-05-06 08:28 | 19.36148 | 72.84033 | 14202 ft | 357 kts | 24° |
| 2026-05-06 08:28 | 19.38384 | 72.85130 | 14874 ft | 361 kts | 24° |
| 2026-05-06 08:29 | 19.40672 | 72.86251 | 15548 ft | 365 kts | 24° |
| 2026-05-06 08:29 | 19.42974 | 72.87403 | 16231 ft | 368 kts | 28° |
| 2026-05-06 08:29 | 19.45021 | 72.89040 | 16850 ft | 374 kts | 45° |
| 2026-05-06 08:29 | 19.46513 | 72.91309 | 17478 ft | 380 kts | 63° |
| 2026-05-06 08:30 | 19.47320 | 72.93991 | 18065 ft | 386 kts | 76° |
| 2026-05-06 08:30 | 19.47890 | 72.96788 | 18562 ft | 391 kts | 76° |
| 2026-05-06 08:30 | 19.48451 | 72.99622 | 19022 ft | 396 kts | 76° |
| 2026-05-06 08:30 | 19.49022 | 73.02489 | 19481 ft | 400 kts | 76° |
| 2026-05-06 08:31 | 19.49607 | 73.05394 | 19944 ft | 405 kts | 76° |
| 2026-05-06 08:31 | 19.50204 | 73.08324 | 20405 ft | 409 kts | 75° |
| 2026-05-06 08:31 | 19.50827 | 73.11282 | 20859 ft | 413 kts | 75° |
| 2026-05-06 08:31 | 19.51463 | 73.14264 | 21305 ft | 417 kts | 75° |
| 2026-05-06 08:32 | 19.52104 | 73.17276 | 21726 ft | 422 kts | 75° |
| 2026-05-06 08:32 | 19.52751 | 73.20323 | 22176 ft | 426 kts | 75° |
| 2026-05-06 08:32 | 19.53401 | 73.23393 | 22601 ft | 430 kts | 75° |
| 2026-05-06 08:32 | 19.54057 | 73.26502 | 23033 ft | 434 kts | 75° |
| 2026-05-06 08:33 | 19.54719 | 73.29643 | 23435 ft | 438 kts | 75° |
| 2026-05-06 08:33 | 19.55386 | 73.32808 | 23795 ft | 441 kts | 75° |
| 2026-05-06 08:33 | 19.56031 | 73.35998 | 24183 ft | 445 kts | 78° |
| 2026-05-06 08:33 | 19.56410 | 73.39267 | 24564 ft | 448 kts | 82° |
| 2026-05-06 08:34 | 19.56727 | 73.42558 | 24931 ft | 451 kts | 82° |
| 2026-05-06 08:34 | 19.57383 | 73.49206 | 25637 ft | 456 kts | 82° |
| 2026-05-06 08:34 | 19.57715 | 73.52559 | 26006 ft | 458 kts | 82° |
| 2026-05-06 08:35 | 19.58049 | 73.55931 | 26346 ft | 461 kts | 82° |
| 2026-05-06 08:35 | 19.58383 | 73.59318 | 26702 ft | 463 kts | 82° |
| 2026-05-06 08:35 | 19.58718 | 73.62725 | 27040 ft | 465 kts | 82° |
| 2026-05-06 08:35 | 19.59199 | 73.66121 | 27329 ft | 466 kts | 75° |
| 2026-05-06 08:36 | 19.60085 | 73.69417 | 27679 ft | 466 kts | 68° |
| 2026-05-06 08:36 | 19.61369 | 73.72570 | 28005 ft | 465 kts | 60° |
| 2026-05-06 08:36 | 19.62907 | 73.75594 | 28274 ft | 467 kts | 59° |
| 2026-05-06 08:36 | 19.64451 | 73.78636 | 28592 ft | 470 kts | 59° |
| 2026-05-06 08:37 | 19.65997 | 73.81699 | 28897 ft | 472 kts | 59° |
| 2026-05-06 08:37 | 19.67545 | 73.84772 | 29190 ft | 474 kts | 59° |
| 2026-05-06 08:37 | 19.69105 | 73.87869 | 29469 ft | 476 kts | 59° |
| 2026-05-06 08:37 | 19.70666 | 73.90969 | 29745 ft | 479 kts | 59° |
| 2026-05-06 08:38 | 19.72243 | 73.94100 | 30006 ft | 481 kts | 59° |
| 2026-05-06 08:38 | 19.73821 | 73.97237 | 30262 ft | 483 kts | 59° |
| 2026-05-06 08:38 | 19.75401 | 74.00388 | 30523 ft | 485 kts | 60° |
| 2026-05-06 08:38 | 19.76772 | 74.03674 | 30779 ft | 489 kts | 67° |
| 2026-05-06 08:39 | 19.77959 | 74.07014 | 31046 ft | 491 kts | 67° |
| 2026-05-06 08:39 | 19.79176 | 74.10409 | 31387 ft | 490 kts | 67° |
| 2026-05-06 08:39 | 19.80389 | 74.13785 | 31747 ft | 490 kts | 67° |
| 2026-05-06 08:39 | 19.81603 | 74.17161 | 32101 ft | 489 kts | 67° |
| 2026-05-06 08:40 | 19.82808 | 74.20517 | 32436 ft | 488 kts | 67° |
| 2026-05-06 08:40 | 19.84021 | 74.23901 | 32779 ft | 488 kts | 67° |
| 2026-05-06 08:40 | 19.85216 | 74.27235 | 33095 ft | 487 kts | 67° |
| 2026-05-06 08:40 | 19.86428 | 74.30619 | 33414 ft | 486 kts | 67° |
| 2026-05-06 08:41 | 19.87628 | 74.33974 | 33723 ft | 486 kts | 67° |
| 2026-05-06 08:41 | 19.88827 | 74.37326 | 34002 ft | 485 kts | 67° |
| 2026-05-06 08:41 | 19.90025 | 74.40680 | 34262 ft | 485 kts | 67° |
| 2026-05-06 08:41 | 19.91220 | 74.44028 | 34503 ft | 485 kts | 67° |
| 2026-05-06 08:42 | 19.92416 | 74.47378 | 34742 ft | 484 kts | 67° |
| 2026-05-06 08:42 | 19.93610 | 74.50727 | 34980 ft | 484 kts | 67° |
| 2026-05-06 08:42 | 19.94799 | 74.54063 | 35223 ft | 484 kts | 67° |
| 2026-05-06 08:42 | 19.95993 | 74.57414 | 35456 ft | 484 kts | 67° |
| 2026-05-06 08:43 | 19.97182 | 74.60756 | 35684 ft | 484 kts | 67° |
| 2026-05-06 08:43 | 19.98370 | 74.64098 | 35924 ft | 483 kts | 67° |
| 2026-05-06 08:43 | 19.99558 | 74.67441 | 36161 ft | 483 kts | 67° |
| 2026-05-06 08:43 | 20.00748 | 74.70790 | 36382 ft | 483 kts | 67° |
| 2026-05-06 08:44 | 20.01959 | 74.74115 | 36617 ft | 483 kts | 66° |
| 2026-05-06 08:44 | 20.03193 | 74.77441 | 36837 ft | 483 kts | 66° |
| 2026-05-06 08:44 | 20.04424 | 74.80756 | 37070 ft | 483 kts | 66° |
| 2026-05-06 08:44 | 20.05656 | 74.84081 | 37296 ft | 483 kts | 66° |
| 2026-05-06 08:45 | 20.06883 | 74.87406 | 37514 ft | 483 kts | 66° |
| 2026-05-06 08:45 | 20.08106 | 74.90727 | 37707 ft | 483 kts | 66° |
| 2026-05-06 08:45 | 20.09329 | 74.94056 | 37909 ft | 483 kts | 66° |
| 2026-05-06 08:45 | 20.10552 | 74.97385 | 38098 ft | 483 kts | 66° |
| 2026-05-06 08:46 | 20.11772 | 75.00708 | 38308 ft | 482 kts | 66° |
| 2026-05-06 08:46 | 20.12990 | 75.04030 | 38487 ft | 483 kts | 66° |
| 2026-05-06 08:46 | 20.14210 | 75.07358 | 38651 ft | 482 kts | 66° |
| 2026-05-06 08:46 | 20.15428 | 75.10684 | 38818 ft | 482 kts | 66° |
| 2026-05-06 08:47 | 20.16643 | 75.14002 | 38889 ft | 482 kts | 66° |
| 2026-05-06 08:47 | 20.19071 | 75.20639 | 38893 ft | 481 kts | 66° |
| 2026-05-06 08:48 | 20.21496 | 75.27278 | 38894 ft | 481 kts | 66° |
| 2026-05-06 08:48 | 20.23918 | 75.33920 | 38896 ft | 482 kts | 66° |
| 2026-05-06 08:49 | 20.26326 | 75.40530 | 38896 ft | 482 kts | 66° |
| 2026-05-06 08:49 | 20.28750 | 75.47196 | 38895 ft | 482 kts | 66° |
| 2026-05-06 08:50 | 20.30790 | 75.54014 | 38886 ft | 485 kts | 72° |
| 2026-05-06 08:50 | 20.32626 | 75.60929 | 38886 ft | 485 kts | 72° |
| 2026-05-06 08:51 | 20.34465 | 75.67832 | 38882 ft | 485 kts | 72° |
| 2026-05-06 08:51 | 20.36304 | 75.74756 | 38881 ft | 486 kts | 72° |
| 2026-05-06 08:52 | 20.38139 | 75.81685 | 38871 ft | 486 kts | 72° |
| 2026-05-06 08:52 | 20.39974 | 75.88622 | 38870 ft | 486 kts | 72° |
| 2026-05-06 08:53 | 20.41805 | 75.95560 | 38871 ft | 487 kts | 72° |
| 2026-05-06 08:53 | 20.43647 | 76.02511 | 38868 ft | 487 kts | 71° |
| 2026-05-06 08:54 | 20.45567 | 76.09433 | 38864 ft | 487 kts | 71° |
| 2026-05-06 08:54 | 20.47496 | 76.16372 | 38867 ft | 488 kts | 71° |
| 2026-05-06 08:55 | 20.49411 | 76.23313 | 38862 ft | 488 kts | 71° |
| 2026-05-06 08:55 | 20.51322 | 76.30260 | 38857 ft | 488 kts | 71° |
| 2026-05-06 08:56 | 20.53219 | 76.37169 | 38855 ft | 489 kts | 71° |
| 2026-05-06 08:56 | 20.55142 | 76.44185 | 38852 ft | 489 kts | 71° |
| 2026-05-06 08:57 | 20.57035 | 76.51102 | 38847 ft | 490 kts | 71° |
| 2026-05-06 08:57 | 20.58940 | 76.58073 | 38843 ft | 490 kts | 71° |
| 2026-05-06 08:58 | 20.60844 | 76.65058 | 38838 ft | 490 kts | 71° |
| 2026-05-06 08:58 | 20.62745 | 76.72038 | 38835 ft | 490 kts | 71° |
| 2026-05-06 08:59 | 20.64643 | 76.79023 | 38830 ft | 490 kts | 71° |
| 2026-05-06 08:59 | 20.66539 | 76.86013 | 38826 ft | 490 kts | 71° |
| 2026-05-06 09:00 | 20.68431 | 76.92998 | 38821 ft | 490 kts | 71° |
| 2026-05-06 09:00 | 20.70323 | 76.99995 | 38814 ft | 490 kts | 71° |
| 2026-05-06 09:01 | 20.72212 | 77.06995 | 38814 ft | 490 kts | 71° |
| 2026-05-06 09:01 | 20.74097 | 77.13989 | 38816 ft | 491 kts | 71° |
| 2026-05-06 09:02 | 20.75981 | 77.20994 | 38816 ft | 491 kts | 71° |
| 2026-05-06 09:02 | 20.77863 | 77.28007 | 38822 ft | 491 kts | 71° |
| 2026-05-06 09:03 | 20.79744 | 77.35025 | 38818 ft | 491 kts | 71° |
| 2026-05-06 09:03 | 20.81621 | 77.42040 | 38820 ft | 491 kts | 71° |
| 2026-05-06 09:04 | 20.83495 | 77.49058 | 38819 ft | 491 kts | 71° |
| 2026-05-06 09:04 | 20.85369 | 77.56082 | 38820 ft | 491 kts | 71° |
| 2026-05-06 09:05 | 20.87277 | 77.63102 | 38820 ft | 491 kts | 71° |
| 2026-05-06 09:05 | 20.89187 | 77.70064 | 38824 ft | 491 kts | 71° |
| 2026-05-06 09:06 | 20.91102 | 77.77079 | 38823 ft | 492 kts | 71° |
| 2026-05-06 09:06 | 20.92484 | 77.84266 | 38825 ft | 495 kts | 80° |
| 2026-05-06 09:07 | 20.93439 | 77.91556 | 38824 ft | 495 kts | 80° |
| 2026-05-06 09:07 | 20.94410 | 77.98844 | 38826 ft | 495 kts | 80° |
| 2026-05-06 09:08 | 20.95376 | 78.06136 | 38824 ft | 495 kts | 80° |
| 2026-05-06 09:08 | 20.96337 | 78.13432 | 38830 ft | 495 kts | 80° |
| 2026-05-06 09:09 | 20.97295 | 78.20732 | 38824 ft | 496 kts | 80° |
| 2026-05-06 09:09 | 20.98250 | 78.28032 | 38826 ft | 496 kts | 80° |
| 2026-05-06 09:10 | 20.99203 | 78.35344 | 38824 ft | 496 kts | 80° |
| 2026-05-06 09:10 | 21.00152 | 78.42646 | 38825 ft | 496 kts | 80° |
| 2026-05-06 09:11 | 21.00939 | 78.48721 | 38822 ft | 496 kts | 80° |
| 2026-05-06 09:11 | 21.01884 | 78.56037 | 38818 ft | 496 kts | 80° |
| 2026-05-06 09:12 | 21.02825 | 78.63353 | 38823 ft | 496 kts | 80° |
| 2026-05-06 09:12 | 21.03763 | 78.70668 | 38818 ft | 496 kts | 80° |
| 2026-05-06 09:13 | 21.04699 | 78.77988 | 38811 ft | 496 kts | 80° |
| 2026-05-06 09:13 | 21.05631 | 78.85306 | 38806 ft | 496 kts | 81° |
| 2026-05-06 09:14 | 21.06561 | 78.92632 | 38804 ft | 496 kts | 81° |
| 2026-05-06 09:14 | 21.07486 | 78.99953 | 38798 ft | 496 kts | 81° |
| 2026-05-06 09:15 | 21.08660 | 79.07228 | 38797 ft | 494 kts | 72° |
| 2026-05-06 09:15 | 21.10612 | 79.14262 | 38798 ft | 493 kts | 71° |
| 2026-05-06 09:16 | 21.12573 | 79.21308 | 38801 ft | 493 kts | 71° |
| 2026-05-06 09:16 | 21.14514 | 79.28310 | 38802 ft | 494 kts | 71° |
| 2026-05-06 09:17 | 21.16466 | 79.35358 | 38805 ft | 494 kts | 71° |
| 2026-05-06 09:17 | 21.18420 | 79.42423 | 38811 ft | 494 kts | 71° |
| 2026-05-06 09:18 | 21.20384 | 79.49538 | 38813 ft | 495 kts | 71° |
| 2026-05-06 09:18 | 21.22318 | 79.56558 | 38816 ft | 495 kts | 71° |
| 2026-05-06 09:19 | 21.24269 | 79.63648 | 38816 ft | 496 kts | 71° |
| 2026-05-06 09:19 | 21.26215 | 79.70736 | 38819 ft | 496 kts | 71° |
| 2026-05-06 09:20 | 21.28159 | 79.77827 | 38818 ft | 496 kts | 71° |
| 2026-05-06 09:20 | 21.30101 | 79.84927 | 38818 ft | 497 kts | 71° |
| 2026-05-06 09:21 | 21.32044 | 79.92043 | 38819 ft | 497 kts | 71° |
| 2026-05-06 09:21 | 21.33984 | 79.99158 | 38821 ft | 497 kts | 71° |
| 2026-05-06 09:22 | 21.35921 | 80.06275 | 38821 ft | 498 kts | 71° |
| 2026-05-06 09:22 | 21.37857 | 80.13403 | 38817 ft | 498 kts | 71° |
| 2026-05-06 09:23 | 21.39791 | 80.20537 | 38813 ft | 498 kts | 71° |
| 2026-05-06 09:23 | 21.41709 | 80.27621 | 38810 ft | 497 kts | 71° |
| 2026-05-06 09:24 | 21.43646 | 80.34792 | 38808 ft | 497 kts | 71° |
| 2026-05-06 09:24 | 21.45568 | 80.41919 | 38807 ft | 497 kts | 71° |
| 2026-05-06 09:25 | 21.47486 | 80.49045 | 38808 ft | 497 kts | 71° |
| 2026-05-06 09:25 | 21.49401 | 80.56175 | 38818 ft | 496 kts | 72° |
| 2026-05-06 09:26 | 21.51314 | 80.63298 | 38820 ft | 496 kts | 72° |
| 2026-05-06 09:26 | 21.53223 | 80.70414 | 38820 ft | 496 kts | 72° |
| 2026-05-06 09:27 | 21.55132 | 80.77544 | 38817 ft | 496 kts | 72° |
| 2026-05-06 09:27 | 21.57026 | 80.84626 | 38815 ft | 496 kts | 72° |
| 2026-05-06 09:28 | 21.58928 | 80.91758 | 38815 ft | 497 kts | 72° |
| 2026-05-06 09:28 | 21.60840 | 80.98937 | 38812 ft | 497 kts | 72° |
| 2026-05-06 09:29 | 21.62729 | 81.06044 | 38810 ft | 498 kts | 72° |
| 2026-05-06 09:29 | 21.64628 | 81.13199 | 38811 ft | 498 kts | 72° |
| 2026-05-06 09:30 | 21.66524 | 81.20362 | 38812 ft | 498 kts | 72° |
| 2026-05-06 09:30 | 21.68419 | 81.27529 | 38817 ft | 499 kts | 72° |
| 2026-05-06 09:31 | 21.70334 | 81.34697 | 38811 ft | 499 kts | 71° |
| 2026-05-06 09:31 | 21.72319 | 81.41847 | 38811 ft | 499 kts | 71° |
| 2026-05-06 09:32 | 21.74299 | 81.49003 | 38809 ft | 499 kts | 71° |
| 2026-05-06 09:32 | 21.76270 | 81.56172 | 38813 ft | 500 kts | 71° |
| 2026-05-06 09:33 | 21.78237 | 81.63349 | 38810 ft | 500 kts | 71° |
| 2026-05-06 09:33 | 21.80082 | 81.70570 | 38814 ft | 501 kts | 73° |
| 2026-05-06 09:34 | 21.81816 | 81.77823 | 38807 ft | 501 kts | 73° |
| 2026-05-06 09:34 | 21.83574 | 81.85089 | 38809 ft | 501 kts | 73° |
| 2026-05-06 09:35 | 21.85341 | 81.92345 | 38806 ft | 501 kts | 73° |
| 2026-05-06 09:35 | 21.87105 | 81.99598 | 38806 ft | 501 kts | 73° |
| 2026-05-06 09:36 | 21.88842 | 82.06812 | 38801 ft | 501 kts | 73° |
| 2026-05-06 09:36 | 21.90582 | 82.14084 | 38800 ft | 501 kts | 73° |
| 2026-05-06 09:37 | 21.92319 | 82.21349 | 38799 ft | 501 kts | 74° |
| 2026-05-06 09:37 | 21.94054 | 82.28617 | 38793 ft | 501 kts | 74° |
| 2026-05-06 09:38 | 21.95783 | 82.35875 | 38789 ft | 501 kts | 74° |
| 2026-05-06 09:38 | 21.97510 | 82.43144 | 38785 ft | 501 kts | 74° |
| 2026-05-06 09:39 | 21.99236 | 82.50421 | 38787 ft | 501 kts | 74° |
| 2026-05-06 09:39 | 22.00955 | 82.57682 | 38783 ft | 501 kts | 74° |
| 2026-05-06 09:40 | 22.02674 | 82.64957 | 38782 ft | 501 kts | 74° |
| 2026-05-06 09:40 | 22.05243 | 82.75864 | 38777 ft | 501 kts | 74° |
| 2026-05-06 09:41 | 22.06954 | 82.83148 | 38776 ft | 501 kts | 74° |
| 2026-05-06 09:41 | 22.08658 | 82.90415 | 38777 ft | 501 kts | 74° |
| 2026-05-06 09:42 | 22.10364 | 82.97706 | 38770 ft | 501 kts | 74° |
| 2026-05-06 09:42 | 22.12064 | 83.04988 | 38774 ft | 501 kts | 74° |
| 2026-05-06 09:43 | 22.13761 | 83.12275 | 38769 ft | 501 kts | 74° |
| 2026-05-06 09:43 | 22.15456 | 83.19568 | 38768 ft | 501 kts | 74° |
| 2026-05-06 09:44 | 22.17149 | 83.26865 | 38770 ft | 501 kts | 74° |
| 2026-05-06 09:44 | 22.18828 | 83.34119 | 38770 ft | 501 kts | 75° |
| 2026-05-06 09:45 | 22.20504 | 83.41428 | 38773 ft | 502 kts | 75° |
| 2026-05-06 09:45 | 22.22173 | 83.48736 | 38770 ft | 502 kts | 75° |
| 2026-05-06 09:46 | 22.23842 | 83.56047 | 38774 ft | 502 kts | 75° |
| 2026-05-06 09:46 | 22.25508 | 83.63363 | 38775 ft | 502 kts | 75° |
| 2026-05-06 09:47 | 22.27171 | 83.70678 | 38775 ft | 502 kts | 75° |
| 2026-05-06 09:47 | 22.28833 | 83.78004 | 38776 ft | 502 kts | 75° |
| 2026-05-06 09:48 | 22.30487 | 83.85314 | 38779 ft | 502 kts | 75° |
| 2026-05-06 09:48 | 22.32141 | 83.92635 | 38779 ft | 502 kts | 75° |
| 2026-05-06 09:49 | 22.33825 | 83.99950 | 38775 ft | 501 kts | 74° |
| 2026-05-06 09:49 | 22.35525 | 84.07251 | 38780 ft | 501 kts | 74° |
| 2026-05-06 09:50 | 22.37216 | 84.14557 | 38783 ft | 501 kts | 74° |
| 2026-05-06 09:50 | 22.38902 | 84.21865 | 38781 ft | 501 kts | 75° |
| 2026-05-06 09:51 | 22.40582 | 84.29168 | 38786 ft | 501 kts | 75° |
| 2026-05-06 09:51 | 22.42248 | 84.36430 | 38791 ft | 501 kts | 75° |
| 2026-05-06 09:52 | 22.43922 | 84.43737 | 38792 ft | 501 kts | 75° |
| 2026-05-06 09:52 | 22.45593 | 84.51047 | 38797 ft | 501 kts | 75° |
| 2026-05-06 09:53 | 22.47261 | 84.58363 | 38808 ft | 501 kts | 75° |
| 2026-05-06 09:53 | 22.48925 | 84.65676 | 38802 ft | 501 kts | 75° |
| 2026-05-06 09:54 | 22.50587 | 84.72997 | 38808 ft | 502 kts | 75° |
| 2026-05-06 09:54 | 22.52249 | 84.80332 | 38807 ft | 502 kts | 75° |
| 2026-05-06 09:55 | 22.53891 | 84.87693 | 38814 ft | 503 kts | 76° |
| 2026-05-06 09:55 | 22.55471 | 84.95069 | 38827 ft | 504 kts | 76° |
| 2026-05-06 09:56 | 22.57054 | 85.02458 | 38843 ft | 504 kts | 76° |
| 2026-05-06 09:56 | 22.58641 | 85.09848 | 38845 ft | 504 kts | 76° |
| 2026-05-06 09:57 | 22.60228 | 85.17251 | 38857 ft | 505 kts | 76° |
| 2026-05-06 09:57 | 22.61808 | 85.24641 | 38850 ft | 505 kts | 76° |
| 2026-05-06 09:58 | 22.63385 | 85.32030 | 38846 ft | 503 kts | 76° |
| 2026-05-06 09:58 | 22.64956 | 85.39415 | 38862 ft | 503 kts | 76° |
| 2026-05-06 09:59 | 22.66521 | 85.46784 | 38864 ft | 503 kts | 76° |
| 2026-05-06 09:59 | 22.68076 | 85.54125 | 38864 ft | 503 kts | 76° |
| 2026-05-06 10:00 | 22.69380 | 85.60297 | 38852 ft | 502 kts | 76° |
| 2026-05-06 10:00 | 22.71187 | 85.68865 | 38844 ft | 502 kts | 76° |
| 2026-05-06 10:01 | 22.72485 | 85.75040 | 38844 ft | 502 kts | 76° |
| 2026-05-06 10:01 | 22.74021 | 85.82358 | 38828 ft | 501 kts | 77° |
| 2026-05-06 10:02 | 22.75574 | 85.89772 | 38804 ft | 501 kts | 77° |
| 2026-05-06 10:02 | 22.77101 | 85.97083 | 38783 ft | 501 kts | 77° |
| 2026-05-06 10:03 | 22.78635 | 86.04445 | 38771 ft | 501 kts | 77° |
| 2026-05-06 10:03 | 22.80167 | 86.11817 | 38761 ft | 502 kts | 77° |
| 2026-05-06 10:04 | 22.81698 | 86.19195 | 38766 ft | 502 kts | 77° |
| 2026-05-06 10:04 | 22.83230 | 86.26587 | 38765 ft | 503 kts | 77° |
| 2026-05-06 10:05 | 22.84763 | 86.33984 | 38789 ft | 504 kts | 77° |
| 2026-05-06 10:05 | 22.86302 | 86.41416 | 38801 ft | 504 kts | 77° |
| 2026-05-06 10:06 | 22.87836 | 86.48825 | 38803 ft | 504 kts | 77° |
| 2026-05-06 10:06 | 22.89371 | 86.56240 | 38800 ft | 504 kts | 77° |
| 2026-05-06 10:07 | 22.90907 | 86.63657 | 38795 ft | 504 kts | 77° |
| 2026-05-06 10:07 | 22.92444 | 86.71084 | 38798 ft | 505 kts | 77° |
| 2026-05-06 10:08 | 22.93979 | 86.78509 | 38782 ft | 505 kts | 77° |
| 2026-05-06 10:08 | 22.95517 | 86.85947 | 38782 ft | 505 kts | 77° |
| 2026-05-06 10:09 | 22.97056 | 86.93390 | 38778 ft | 506 kts | 77° |
| 2026-05-06 10:09 | 22.98594 | 87.00829 | 38778 ft | 506 kts | 77° |
| 2026-05-06 10:10 | 23.00135 | 87.08284 | 38767 ft | 506 kts | 77° |
| 2026-05-06 10:10 | 23.01676 | 87.15743 | 38764 ft | 506 kts | 77° |
| 2026-05-06 10:11 | 23.03216 | 87.23201 | 38763 ft | 507 kts | 77° |
| 2026-05-06 10:11 | 23.04757 | 87.30666 | 38764 ft | 507 kts | 77° |
| 2026-05-06 10:12 | 23.06300 | 87.38138 | 38764 ft | 507 kts | 77° |
| 2026-05-06 10:12 | 23.07842 | 87.45609 | 38765 ft | 507 kts | 77° |
| 2026-05-06 10:13 | 23.09383 | 87.53073 | 38758 ft | 507 kts | 77° |
| 2026-05-06 10:13 | 23.10924 | 87.60540 | 38762 ft | 507 kts | 77° |
| 2026-05-06 10:14 | 23.12466 | 87.68009 | 38761 ft | 506 kts | 77° |
| 2026-05-06 10:14 | 23.14007 | 87.75470 | 38762 ft | 506 kts | 77° |
| 2026-05-06 10:15 | 23.15549 | 87.82933 | 38762 ft | 506 kts | 77° |
| 2026-05-06 10:15 | 23.17089 | 87.90387 | 38756 ft | 506 kts | 77° |
| 2026-05-06 10:16 | 23.18629 | 87.97843 | 38755 ft | 505 kts | 77° |
| 2026-05-06 10:16 | 23.20160 | 88.05251 | 38756 ft | 505 kts | 77° |
| 2026-05-06 10:17 | 23.21699 | 88.12702 | 38760 ft | 505 kts | 77° |
| 2026-05-06 10:17 | 23.23248 | 88.20194 | 38757 ft | 505 kts | 77° |
| 2026-05-06 10:18 | 23.24777 | 88.27592 | 38760 ft | 505 kts | 77° |
| 2026-05-06 10:18 | 23.26317 | 88.35045 | 38759 ft | 505 kts | 77° |
| 2026-05-06 10:19 | 23.27856 | 88.42498 | 38757 ft | 505 kts | 77° |
| 2026-05-06 10:19 | 23.29396 | 88.49955 | 38755 ft | 505 kts | 77° |
| 2026-05-06 10:20 | 23.30936 | 88.57413 | 38761 ft | 506 kts | 77° |
| 2026-05-06 10:20 | 23.32479 | 88.64885 | 38763 ft | 506 kts | 77° |
| 2026-05-06 10:21 | 23.34021 | 88.72350 | 38766 ft | 506 kts | 77° |
| 2026-05-06 10:21 | 23.35566 | 88.79832 | 38769 ft | 507 kts | 77° |
| 2026-05-06 10:22 | 23.37110 | 88.87310 | 38771 ft | 507 kts | 77° |
| 2026-05-06 10:22 | 23.38653 | 88.94788 | 38768 ft | 507 kts | 77° |
| 2026-05-06 10:23 | 23.40198 | 89.02287 | 38773 ft | 507 kts | 77° |
| 2026-05-06 10:23 | 23.41219 | 89.07246 | 38775 ft | 507 kts | 77° |